Time;durP1;ratioP1;P1;durP2;ratioP2;P2;SDS_P1;SDS_P2;PMS_P1;PMS_P2;Temp;Humidity;BMP_temperature;BMP_pressure;BME280_temperature;BME280_humidity;BME280_pressure;Samples;Min_cycle;Max_cycle;Signal;HPM_P1;HPM_P2
2021/09/15 00:00:51;;;;;;;12.70;10.93;;;;;;;;;;2627022;38;20892;-72
2021/09/15 00:03:18;;;;;;;11.93;10.90;;;;;;;;;;2629738;38;20390;-73
2021/09/15 00:05:43;;;;;;;12.47;11.13;;;;;;;;;;2626943;30;20487;-73
2021/09/15 00:08:10;;;;;;;13.67;11.60;;;;;;;;;;2628216;30;20363;-73
2021/09/15 00:10:36;;;;;;;14.43;10.90;;;;;;;;;;2627991;30;20880;-73
2021/09/15 00:13:05;;;;;;;15.97;13.47;;;;;;;;;;2629150;30;21495;-73
2021/09/15 00:15:31;;;;;;;11.83;10.70;;;;;;;;;;2630825;30;20403;-72
2021/09/15 00:17:57;;;;;;;15.33;11.83;;;;;;;;;;2630164;30;20878;-72
2021/09/15 00:20:23;;;;;;;13.47;11.50;;;;;;;;;;2630650;38;21182;-72
2021/09/15 00:22:49;;;;;;;13.13;12.03;;;;;;;;;;2630541;30;20367;-72
2021/09/15 00:25:15;;;;;;;12.43;11.27;;;;;;;;;;2630120;30;20378;-73
2021/09/15 00:27:42;;;;;;;11.53;10.33;;;;;;;;;;2632168;30;20371;-72
2021/09/15 00:30:08;;;;;;;12.80;11.60;;;;;;;;;;2635591;30;20863;-73
2021/09/15 00:32:34;;;;;;;12.23;11.00;;;;;;;;;;2635453;30;20359;-73
2021/09/15 00:35:00;;;;;;;13.03;11.97;;;;;;;;;;2630999;38;20386;-73
2021/09/15 00:37:26;;;;;;;12.23;11.10;;;;;;;;;;2634437;30;20395;-73
2021/09/15 00:39:52;;;;;;;13.00;11.80;;;;;;;;;;2634123;30;20402;-73
2021/09/15 00:42:18;;;;;;;12.00;10.90;;;;;;;;;;2634766;30;20354;-73
2021/09/15 00:44:44;;;;;;;11.13;10.23;;;;;;;;;;2631149;30;20370;-73
2021/09/15 00:47:10;;;;;;;13.47;11.30;;;;;;;;;;2631177;30;21083;-73
2021/09/15 00:49:36;;;;;;;12.17;11.07;;;;;;;;;;2636277;30;20478;-73
2021/09/15 00:52:02;;;;;;;11.83;10.73;;;;;;;;;;2629587;30;20371;-73
2021/09/15 00:54:28;;;;;;;11.77;10.87;;;;;;;;;;2635565;30;20820;-73
2021/09/15 00:56:54;;;;;;;12.50;11.40;;;;;;;;;;2632433;38;21381;-73
2021/09/15 00:59:20;;;;;;;12.63;11.43;;;;;;;;;;2630509;38;20359;-73
2021/09/15 01:01:49;;;;;;;11.90;10.70;;;;;;;;;;2633571;30;21234;-73
2021/09/15 01:04:15;;;;;;;12.10;11.00;;;;;;;;;;2628956;38;20375;-73
2021/09/15 01:06:43;;;;;;;11.40;10.33;;;;;;;;;;2628426;30;20387;-73
2021/09/15 01:09:10;;;;;;;13.03;11.83;;;;;;;;;;2633364;38;20347;-73
2021/09/15 01:11:38;;;;;;;12.03;10.83;;;;;;;;;;2632542;30;20398;-73
2021/09/15 01:14:04;;;;;;;12.67;11.43;;;;;;;;;;2630799;38;20379;-73
2021/09/15 01:16:49;;;;;;;12.80;11.60;;;;;;;;;;2633699;30;20346;-73
2021/09/15 01:19:15;;;;;;;12.30;11.30;;;;;;;;;;2633690;30;20343;-73
2021/09/15 01:21:41;;;;;;;12.97;11.67;;;;;;;;;;2632991;38;20378;-73
2021/09/15 01:24:07;;;;;;;12.57;11.43;;;;;;;;;;2637109;30;20352;-73
2021/09/15 01:26:36;;;;;;;13.30;12.00;;;;;;;;;;2634910;30;20363;-73
2021/09/15 01:29:03;;;;;;;12.67;11.57;;;;;;;;;;2634950;30;20498;-73
2021/09/15 01:31:29;;;;;;;12.20;11.00;;;;;;;;;;2632382;38;20374;-73
2021/09/15 01:33:55;;;;;;;13.53;12.43;;;;;;;;;;2632105;30;20382;-73
2021/09/15 01:36:21;;;;;;;12.87;11.87;;;;;;;;;;2629469;30;21001;-73
2021/09/15 01:38:47;;;;;;;12.87;11.67;;;;;;;;;;2634548;38;20347;-73
2021/09/15 01:41:13;;;;;;;11.57;10.43;;;;;;;;;;2631186;30;20363;-73
2021/09/15 01:43:39;;;;;;;12.80;11.70;;;;;;;;;;2631644;38;20351;-73
2021/09/15 01:46:05;;;;;;;13.70;12.50;;;;;;;;;;2632470;38;20360;-73
2021/09/15 01:48:31;;;;;;;13.23;11.97;;;;;;;;;;2631707;30;20403;-73
2021/09/15 01:50:57;;;;;;;13.77;12.57;;;;;;;;;;2634989;38;20394;-73
2021/09/15 01:53:23;;;;;;;12.87;11.57;;;;;;;;;;2628896;38;20364;-73
2021/09/15 01:55:49;;;;;;;13.00;11.73;;;;;;;;;;2631946;30;20418;-73
2021/09/15 01:58:15;;;;;;;13.00;11.80;;;;;;;;;;2635268;30;20881;-73
2021/09/15 02:00:41;;;;;;;14.13;12.90;;;;;;;;;;2627654;38;20398;-73
2021/09/15 02:03:07;;;;;;;11.90;10.90;;;;;;;;;;2631764;30;20367;-73
2021/09/15 02:05:33;;;;;;;12.83;11.70;;;;;;;;;;2635609;30;20354;-73
2021/09/15 02:07:59;;;;;;;12.47;11.47;;;;;;;;;;2632240;30;20902;-73
2021/09/15 02:10:25;;;;;;;12.70;11.70;;;;;;;;;;2631434;30;20903;-73
2021/09/15 02:12:52;;;;;;;12.87;11.77;;;;;;;;;;2632922;30;20784;-74
2021/09/15 02:15:18;;;;;;;12.83;11.73;;;;;;;;;;2633168;30;20875;-73
2021/09/15 02:17:44;;;;;;;12.67;11.57;;;;;;;;;;2633289;30;21000;-73
2021/09/15 02:20:10;;;;;;;12.83;11.63;;;;;;;;;;2630066;38;20958;-73
2021/09/15 02:22:36;;;;;;;12.30;11.30;;;;;;;;;;2631799;30;20371;-73
2021/09/15 02:25:07;;;;;;;12.80;11.33;;;;;;;;;;2633691;30;20861;-73
2021/09/15 02:27:33;;;;;;;12.90;11.73;;;;;;;;;;2635336;30;20557;-73
2021/09/15 02:29:59;;;;;;;12.43;11.33;;;;;;;;;;2632012;30;20363;-73
2021/09/15 02:32:25;;;;;;;13.03;11.73;;;;;;;;;;2632379;30;20691;-73
2021/09/15 02:34:51;;;;;;;14.50;13.17;;;;;;;;;;2630903;30;21302;-73
2021/09/15 02:37:18;;;;;;;12.97;11.70;;;;;;;;;;2634698;30;20358;-73
2021/09/15 02:39:44;;;;;;;13.23;12.03;;;;;;;;;;2633521;38;20921;-73
2021/09/15 02:42:10;;;;;;;15.20;11.87;;;;;;;;;;2631752;38;20446;-73
2021/09/15 02:44:36;;;;;;;12.57;11.43;;;;;;;;;;2629212;30;20373;-73
2021/09/15 02:47:02;;;;;;;13.47;12.37;;;;;;;;;;2633378;30;20359;-74
2021/09/15 02:49:28;;;;;;;13.03;11.90;;;;;;;;;;2633309;30;20386;-73
2021/09/15 02:51:55;;;;;;;13.50;12.30;;;;;;;;;;2632626;38;20347;-73
2021/09/15 02:54:21;;;;;;;13.03;11.93;;;;;;;;;;2631737;30;20510;-73
2021/09/15 02:56:47;;;;;;;11.90;10.93;;;;;;;;;;2636472;30;20369;-73
2021/09/15 02:59:13;;;;;;;13.77;12.57;;;;;;;;;;2632824;30;20595;-73
2021/09/15 03:01:39;;;;;;;13.03;11.83;;;;;;;;;;2630946;30;20370;-73
2021/09/15 03:04:08;;;;;;;13.90;12.70;;;;;;;;;;2631569;38;20371;-73
2021/09/15 03:06:34;;;;;;;14.90;13.60;;;;;;;;;;2634225;30;20383;-73
2021/09/15 03:09:00;;;;;;;12.03;10.93;;;;;;;;;;2631431;30;20367;-73
2021/09/15 03:11:26;;;;;;;14.43;13.03;;;;;;;;;;2634602;30;20934;-73
2021/09/15 03:13:52;;;;;;;13.97;12.83;;;;;;;;;;2633260;30;20383;-73
2021/09/15 03:16:21;;;;;;;12.50;11.40;;;;;;;;;;2633232;30;20371;-73
2021/09/15 03:18:47;;;;;;;16.07;14.37;;;;;;;;;;2630647;30;20375;-73
2021/09/15 03:21:13;;;;;;;16.00;11.90;;;;;;;;;;2630937;30;20354;-73
2021/09/15 03:23:39;;;;;;;14.27;12.87;;;;;;;;;;2630576;30;20364;-73
2021/09/15 03:26:05;;;;;;;14.60;13.20;;;;;;;;;;2632553;38;20494;-73
2021/09/15 03:28:31;;;;;;;14.47;12.93;;;;;;;;;;2630123;30;20417;-74
2021/09/15 03:30:57;;;;;;;15.53;13.70;;;;;;;;;;2633062;30;20361;-74
2021/09/15 03:33:23;;;;;;;15.30;13.67;;;;;;;;;;2632041;38;20489;-73
2021/09/15 03:35:49;;;;;;;15.47;13.87;;;;;;;;;;2633340;38;20370;-73
2021/09/15 03:38:15;;;;;;;14.17;13.00;;;;;;;;;;2634275;30;20514;-73
2021/09/15 03:40:41;;;;;;;14.93;13.63;;;;;;;;;;2629347;30;20394;-73
2021/09/15 03:43:07;;;;;;;14.70;13.30;;;;;;;;;;2632516;30;20363;-73
2021/09/15 03:45:33;;;;;;;14.37;13.07;;;;;;;;;;2632757;30;20367;-73
2021/09/15 03:47:59;;;;;;;14.20;12.87;;;;;;;;;;2631884;30;20379;-73
2021/09/15 03:50:25;;;;;;;14.20;12.90;;;;;;;;;;2635824;30;20749;-73
2021/09/15 03:52:51;;;;;;;14.20;12.93;;;;;;;;;;2636314;30;20423;-73
2021/09/15 03:55:17;;;;;;;13.27;12.20;;;;;;;;;;2634186;30;20347;-73
2021/09/15 03:57:43;;;;;;;14.33;13.03;;;;;;;;;;2629729;30;20494;-73
2021/09/15 04:00:10;;;;;;;15.17;13.67;;;;;;;;;;2633817;30;20363;-74
2021/09/15 04:02:39;;;;;;;14.73;13.37;;;;;;;;;;2632400;38;20375;-74
2021/09/15 04:05:05;;;;;;;13.87;12.57;;;;;;;;;;2634233;30;20895;-73
2021/09/15 04:07:31;;;;;;;15.93;14.23;;;;;;;;;;2633067;38;20386;-73
2021/09/15 04:09:57;;;;;;;14.27;12.90;;;;;;;;;;2632892;30;20371;-74
2021/09/15 04:12:23;;;;;;;17.43;13.10;;;;;;;;;;2632492;30;20355;-73
2021/09/15 04:14:49;;;;;;;15.70;14.27;;;;;;;;;;2632689;30;20390;-73
2021/09/15 04:17:16;;;;;;;16.23;14.73;;;;;;;;;;2629215;30;21194;-73
2021/09/15 04:19:42;;;;;;;14.97;13.37;;;;;;;;;;2627104;38;20387;-73
2021/09/15 04:22:15;;;;;;;17.90;16.20;;;;;;;;;;2632927;38;20399;-73
2021/09/15 04:32:45;;;;;;;16.93;15.37;;;;;;;;;;2631739;30;20375;-73
2021/09/15 04:35:13;;;;;;;15.60;14.20;;;;;;;;;;2629531;30;20375;-72
2021/09/15 04:37:42;;;;;;;16.83;15.27;;;;;;;;;;2632990;30;20462;-73
2021/09/15 04:40:08;;;;;;;16.00;14.23;;;;;;;;;;2634560;38;20886;-73
2021/09/15 04:42:34;;;;;;;15.43;14.07;;;;;;;;;;2631026;30;20351;-73
2021/09/15 04:45:00;;;;;;;17.93;15.37;;;;;;;;;;2632089;30;20754;-73
2021/09/15 04:47:26;;;;;;;17.37;15.77;;;;;;;;;;2631956;30;20367;-73
2021/09/15 04:49:52;;;;;;;16.03;14.20;;;;;;;;;;2629401;30;20475;-73
2021/09/15 04:52:18;;;;;;;16.90;15.40;;;;;;;;;;2633714;30;20359;-73
2021/09/15 04:54:44;;;;;;;16.80;15.17;;;;;;;;;;2631001;30;20382;-73
2021/09/15 04:57:10;;;;;;;16.00;14.40;;;;;;;;;;2633652;38;20359;-73
2021/09/15 04:59:36;;;;;;;17.93;16.17;;;;;;;;;;2631207;30;20358;-73
2021/09/15 05:02:03;;;;;;;18.03;16.13;;;;;;;;;;2631547;38;20343;-73
2021/09/15 05:04:29;;;;;;;17.70;16.20;;;;;;;;;;2631633;30;20465;-73
2021/09/15 05:06:56;;;;;;;19.37;17.13;;;;;;;;;;2630850;30;20399;-73
2021/09/15 05:09:22;;;;;;;17.47;15.77;;;;;;;;;;2629769;30;20374;-73
2021/09/15 05:11:48;;;;;;;16.60;15.00;;;;;;;;;;2631466;30;20343;-73
2021/09/15 05:14:14;;;;;;;17.90;16.00;;;;;;;;;;2631663;30;21332;-73
2021/09/15 05:16:40;;;;;;;17.07;15.27;;;;;;;;;;2633573;38;20375;-73
2021/09/15 05:19:06;;;;;;;16.97;15.27;;;;;;;;;;2630587;30;20885;-74
2021/09/15 05:21:32;;;;;;;17.23;15.70;;;;;;;;;;2630842;30;20921;-76
2021/09/15 05:23:58;;;;;;;17.57;16.07;;;;;;;;;;2631554;30;20453;-73
2021/09/15 05:26:24;;;;;;;18.20;16.40;;;;;;;;;;2629185;30;20422;-75
2021/09/15 05:28:50;;;;;;;17.57;15.77;;;;;;;;;;2628250;38;20919;-75
2021/09/15 05:31:16;;;;;;;18.53;16.67;;;;;;;;;;2631131;38;20913;-75
2021/09/15 05:33:42;;;;;;;20.27;17.73;;;;;;;;;;2627723;30;20382;-73
2021/09/15 05:36:08;;;;;;;19.30;16.77;;;;;;;;;;2629557;30;21170;-73
2021/09/15 05:38:34;;;;;;;19.13;17.33;;;;;;;;;;2628253;30;20373;-73
2021/09/15 05:41:00;;;;;;;19.37;17.30;;;;;;;;;;2630482;30;20485;-73
2021/09/15 05:43:26;;;;;;;19.83;16.00;;;;;;;;;;2626064;30;20961;-73
2021/09/15 05:45:52;;;;;;;19.27;17.37;;;;;;;;;;2624417;30;20391;-73
2021/09/15 05:48:18;;;;;;;24.00;17.23;;;;;;;;;;2628365;30;20494;-73
2021/09/15 05:50:44;;;;;;;19.60;15.97;;;;;;;;;;2624604;38;20431;-73
2021/09/15 05:53:12;;;;;;;18.50;16.10;;;;;;;;;;2626583;30;20375;-73
2021/09/15 05:55:38;;;;;;;18.17;16.27;;;;;;;;;;2624525;38;20367;-74
2021/09/15 05:58:04;;;;;;;18.97;17.00;;;;;;;;;;2626389;30;20409;-74
2021/09/15 06:00:30;;;;;;;17.77;16.10;;;;;;;;;;2626602;30;20385;-74
2021/09/15 06:02:56;;;;;;;20.17;17.83;;;;;;;;;;2627359;30;20387;-74
2021/09/15 06:05:23;;;;;;;18.30;16.37;;;;;;;;;;2623470;30;20411;-74
2021/09/15 06:07:49;;;;;;;19.03;17.00;;;;;;;;;;2622744;38;20375;-74
2021/09/15 06:10:15;;;;;;;17.60;15.90;;;;;;;;;;2624870;30;20406;-74
2021/09/15 06:12:41;;;;;;;20.70;18.43;;;;;;;;;;2624968;30;20362;-73
2021/09/15 06:15:08;;;;;;;19.50;16.43;;;;;;;;;;2625487;38;20883;-73
2021/09/15 06:17:34;;;;;;;18.00;16.20;;;;;;;;;;2625066;30;20383;-73
2021/09/15 06:20:00;;;;;;;18.20;16.50;;;;;;;;;;2624231;30;20497;-74
2021/09/15 06:22:26;;;;;;;19.17;17.27;;;;;;;;;;2621202;38;20389;-74
2021/09/15 06:24:55;;;;;;;18.47;16.40;;;;;;;;;;2628706;30;20403;-74
2021/09/15 06:27:22;;;;;;;18.43;16.67;;;;;;;;;;2632852;30;20375;-73
2021/09/15 06:29:48;;;;;;;19.30;16.50;;;;;;;;;;2634881;30;21175;-73
2021/09/15 06:32:14;;;;;;;19.17;17.27;;;;;;;;;;2632365;38;20370;-74
2021/09/15 06:34:40;;;;;;;18.23;16.57;;;;;;;;;;2630720;38;20347;-74
2021/09/15 06:37:06;;;;;;;18.10;16.13;;;;;;;;;;2630321;38;20378;-74
2021/09/15 06:39:33;;;;;;;18.03;16.33;;;;;;;;;;2632637;30;20359;-74
2021/09/15 06:41:59;;;;;;;17.27;15.20;;;;;;;;;;2631968;30;21111;-74
2021/09/15 06:44:25;;;;;;;18.40;16.53;;;;;;;;;;2630755;30;20904;-73
2021/09/15 06:46:51;;;;;;;17.50;15.70;;;;;;;;;;2631117;38;20450;-74
2021/09/15 06:49:17;;;;;;;17.33;15.37;;;;;;;;;;2632583;38;20379;-73
2021/09/15 06:51:43;;;;;;;18.27;16.30;;;;;;;;;;2631410;30;20861;-75
2021/09/15 06:54:10;;;;;;;16.53;14.90;;;;;;;;;;2628598;38;20945;-74
2021/09/15 06:56:36;;;;;;;16.57;15.10;;;;;;;;;;2628050;38;20358;-75
2021/09/15 06:59:02;;;;;;;16.70;15.17;;;;;;;;;;2629558;30;20371;-75
2021/09/15 07:01:28;;;;;;;16.57;15.00;;;;;;;;;;2625723;38;20384;-75
2021/09/15 07:03:54;;;;;;;17.17;15.50;;;;;;;;;;2631056;30;20424;-75
2021/09/15 07:06:20;;;;;;;18.00;16.27;;;;;;;;;;2630010;30;20394;-76
2021/09/15 07:08:46;;;;;;;16.10;14.60;;;;;;;;;;2630899;30;20367;-75
2021/09/15 07:11:12;;;;;;;17.90;16.20;;;;;;;;;;2630960;30;20367;-75
2021/09/15 07:13:38;;;;;;;19.10;15.20;;;;;;;;;;2629173;38;20382;-74
2021/09/15 07:16:04;;;;;;;16.43;14.83;;;;;;;;;;2627500;30;20795;-74
2021/09/15 07:18:30;;;;;;;15.57;14.27;;;;;;;;;;2630232;30;20884;-74
2021/09/15 07:20:56;;;;;;;15.90;14.20;;;;;;;;;;2632195;38;20771;-74
2021/09/15 07:23:24;;;;;;;15.60;14.10;;;;;;;;;;2631031;30;20403;-76
2021/09/15 07:25:50;;;;;;;14.23;12.43;;;;;;;;;;2631409;30;20379;-75
2021/09/15 07:28:17;;;;;;;19.67;13.13;;;;;;;;;;2629839;38;20474;-74
2021/09/15 07:30:43;;;;;;;13.50;11.50;;;;;;;;;;2629994;38;20858;-75
2021/09/15 07:33:09;;;;;;;14.00;12.23;;;;;;;;;;2630542;30;20379;-75
2021/09/15 07:35:35;;;;;;;12.30;11.07;;;;;;;;;;2634238;30;20902;-75
2021/09/15 07:38:01;;;;;;;13.73;12.43;;;;;;;;;;2632132;38;20379;-73
2021/09/15 07:40:27;;;;;;;13.07;11.73;;;;;;;;;;2628276;38;20371;-74
2021/09/15 07:42:53;;;;;;;14.80;10.47;;;;;;;;;;2632050;38;20383;-74
2021/09/15 07:45:19;;;;;;;12.93;11.53;;;;;;;;;;2629659;30;20462;-74
2021/09/15 07:47:45;;;;;;;13.17;10.17;;;;;;;;;;2628414;30;20901;-75
2021/09/15 07:50:12;;;;;;;13.83;10.70;;;;;;;;;;2631776;38;20371;-74
2021/09/15 07:52:38;;;;;;;10.43;9.43;;;;;;;;;;2632547;30;20374;-74
2021/09/15 07:55:05;;;;;;;11.37;10.27;;;;;;;;;;2630779;38;20352;-74
2021/09/15 07:57:31;;;;;;;12.03;10.77;;;;;;;;;;2633192;30;20824;-73
2021/09/15 07:59:57;;;;;;;11.37;10.27;;;;;;;;;;2628724;38;20343;-74
2021/09/15 08:02:23;;;;;;;11.00;10.00;;;;;;;;;;2631066;38;20367;-74
2021/09/15 08:04:49;;;;;;;10.13;9.07;;;;;;;;;;2630725;30;20916;-74
2021/09/15 08:07:15;;;;;;;11.27;10.17;;;;;;;;;;2632585;30;20359;-75
2021/09/15 08:09:42;;;;;;;15.13;11.20;;;;;;;;;;2630110;38;20359;-74
2021/09/15 08:12:08;;;;;;;11.50;10.30;;;;;;;;;;2632086;30;20422;-74
2021/09/15 08:14:35;;;;;;;10.93;9.87;;;;;;;;;;2628267;38;20366;-74
2021/09/15 08:17:01;;;;;;;10.10;9.10;;;;;;;;;;2629355;38;20371;-74
2021/09/15 08:19:27;;;;;;;10.07;9.17;;;;;;;;;;2630845;30;20359;-74
2021/09/15 08:21:54;;;;;;;8.90;8.10;;;;;;;;;;2631994;31;20468;-74
2021/09/15 08:24:21;;;;;;;9.77;8.93;;;;;;;;;;2633661;30;20375;-74
2021/09/15 08:26:47;;;;;;;13.10;9.07;;;;;;;;;;2631554;30;20910;-73
2021/09/15 08:29:13;;;;;;;9.93;9.00;;;;;;;;;;2633693;30;20926;-74
2021/09/15 08:31:40;;;;;;;14.57;10.30;;;;;;;;;;2630811;38;20367;-74
2021/09/15 08:34:06;;;;;;;10.70;9.60;;;;;;;;;;2631621;30;20394;-74
2021/09/15 08:36:32;;;;;;;10.03;9.07;;;;;;;;;;2631997;30;20403;-74
2021/09/15 08:38:58;;;;;;;10.50;8.87;;;;;;;;;;2633558;30;20358;-74
2021/09/15 08:41:24;;;;;;;11.20;9.10;;;;;;;;;;2631883;30;20346;-75
2021/09/15 08:43:51;;;;;;;10.13;8.60;;;;;;;;;;2632130;38;20359;-74
2021/09/15 08:46:19;;;;;;;13.70;8.73;;;;;;;;;;2630706;38;20400;-74
2021/09/15 08:48:47;;;;;;;9.63;8.73;;;;;;;;;;2633392;38;20366;-75
2021/09/15 08:51:16;;;;;;;9.13;8.33;;;;;;;;;;2630838;38;20355;-74
2021/09/15 08:53:42;;;;;;;9.03;8.10;;;;;;;;;;2630214;30;20381;-74
2021/09/15 08:56:09;;;;;;;9.73;8.73;;;;;;;;;;2631837;38;20778;-74
2021/09/15 08:58:35;;;;;;;11.23;9.33;;;;;;;;;;2633028;38;20390;-74
2021/09/15 09:01:17;;;;;;;9.63;8.73;;;;;;;;;;2631457;30;20363;-74
2021/09/15 09:03:45;;;;;;;9.17;8.27;;;;;;;;;;2634508;30;20366;-74
2021/09/15 09:06:12;;;;;;;10.10;8.03;;;;;;;;;;2632708;30;21034;-74
2021/09/15 09:08:40;;;;;;;11.43;8.13;;;;;;;;;;2631183;38;20344;-73
2021/09/15 09:11:06;;;;;;;8.50;7.80;;;;;;;;;;2632340;30;20354;-74
2021/09/15 09:13:34;;;;;;;9.57;8.57;;;;;;;;;;2633308;30;20375;-74
2021/09/15 09:16:00;;;;;;;9.70;8.70;;;;;;;;;;2632469;30;20373;-74
2021/09/15 09:18:26;;;;;;;9.47;8.67;;;;;;;;;;2635817;30;20906;-74
2021/09/15 09:20:52;;;;;;;11.43;10.33;;;;;;;;;;2630106;30;20363;-74
2021/09/15 09:23:19;;;;;;;11.30;9.43;;;;;;;;;;2632435;31;20451;-74
2021/09/15 09:25:52;;;;;;;13.73;10.70;;;;;;;;;;2630285;38;20386;-75
2021/09/15 09:28:18;;;;;;;11.20;10.20;;;;;;;;;;2631978;30;20413;-74
2021/09/15 09:30:44;;;;;;;12.70;10.20;;;;;;;;;;2632071;30;21253;-74
2021/09/15 09:33:10;;;;;;;12.63;10.07;;;;;;;;;;2632410;38;20359;-74
2021/09/15 09:35:41;;;;;;;11.80;10.57;;;;;;;;;;2635422;38;20589;-74
2021/09/15 09:38:23;;;;;;;11.00;10.00;;;;;;;;;;2633253;30;20379;-74
2021/09/15 09:40:53;;;;;;;11.73;10.53;;;;;;;;;;2633239;30;20359;-74
2021/09/15 09:43:20;;;;;;;17.70;11.90;;;;;;;;;;2633332;30;20354;-75
2021/09/15 09:45:47;;;;;;;14.57;11.87;;;;;;;;;;2632798;38;20876;-75
2021/09/15 09:48:28;;;;;;;11.13;10.13;;;;;;;;;;2634154;38;20359;-74
2021/09/15 09:50:54;;;;;;;13.20;10.97;;;;;;;;;;2634754;30;20363;-75
2021/09/15 09:53:21;;;;;;;12.33;11.13;;;;;;;;;;2631017;30;20371;-73
2021/09/15 09:55:50;;;;;;;12.53;11.37;;;;;;;;;;2633053;30;20351;-76
2021/09/15 09:58:22;;;;;;;14.20;12.77;;;;;;;;;;2634005;30;20815;-75
2021/09/15 10:00:48;;;;;;;14.30;12.97;;;;;;;;;;2632458;38;20356;-75
2021/09/15 10:03:16;;;;;;;20.20;14.20;;;;;;;;;;2634055;30;20375;-76
2021/09/15 10:05:44;;;;;;;15.50;14.00;;;;;;;;;;2635383;30;21363;-75
2021/09/15 10:08:11;;;;;;;14.83;13.33;;;;;;;;;;2632579;38;20370;-76
2021/09/15 10:10:40;;;;;;;17.37;14.47;;;;;;;;;;2637115;30;20375;-75
2021/09/15 10:13:09;;;;;;;14.30;12.00;;;;;;;;;;2633342;38;20374;-76
2021/09/15 10:15:42;;;;;;;13.50;12.20;;;;;;;;;;2631829;38;20363;-76
2021/09/15 10:18:12;;;;;;;12.03;10.67;;;;;;;;;;2632088;38;20373;-76
2021/09/15 10:20:38;;;;;;;11.67;9.40;;;;;;;;;;2630796;38;20375;-76
2021/09/15 10:23:24;;;;;;;11.60;10.40;;;;;;;;;;2633376;30;20347;-76
2021/09/15 10:25:50;;;;;;;11.77;10.40;;;;;;;;;;2634288;30;20865;-75
2021/09/15 10:28:17;;;;;;;10.40;9.30;;;;;;;;;;2631969;38;20343;-75
2021/09/15 10:30:46;;;;;;;12.37;11.27;;;;;;;;;;2631531;38;20375;-75
2021/09/15 10:33:32;;;;;;;12.00;10.80;;;;;;;;;;2635404;30;20377;-75
2021/09/15 10:35:58;;;;;;;13.93;12.50;;;;;;;;;;2632577;38;20377;-75
2021/09/15 10:38:44;;;;;;;13.40;12.00;;;;;;;;;;2633720;30;20861;-76
2021/09/15 10:41:29;;;;;;;13.07;11.77;;;;;;;;;;2630719;30;20996;-76
2021/09/15 10:44:07;;;;;;;11.90;10.70;;;;;;;;;;2632448;30;20993;-75
2021/09/15 10:46:33;;;;;;;9.20;8.30;;;;;;;;;;2635058;30;20474;-75
2021/09/15 10:49:19;;;;;;;9.23;8.03;;;;;;;;;;2633626;38;20351;-74
2021/09/15 10:51:46;;;;;;;9.47;8.57;;;;;;;;;;2632649;30;20395;-75
2021/09/15 10:54:31;;;;;;;7.90;7.10;;;;;;;;;;2632380;30;20390;-75
2021/09/15 10:57:15;;;;;;;7.93;7.10;;;;;;;;;;2631984;38;20367;-74
2021/09/15 10:59:47;;;;;;;11.87;7.27;;;;;;;;;;2632514;30;20362;-74
2021/09/15 11:02:33;;;;;;;7.37;6.67;;;;;;;;;;2632466;30;20390;-75
2021/09/15 11:05:20;;;;;;;6.47;5.97;;;;;;;;;;2629430;30;20909;-75
2021/09/15 11:07:49;;;;;;;7.00;6.30;;;;;;;;;;2636328;30;20355;-75
2021/09/15 11:10:35;;;;;;;9.00;6.23;;;;;;;;;;2632382;30;21072;-75
2021/09/15 11:13:03;;;;;;;8.57;6.70;;;;;;;;;;2633050;38;20382;-75
2021/09/15 11:15:30;;;;;;;7.23;6.63;;;;;;;;;;2630981;38;20830;-75
2021/09/15 11:17:57;;;;;;;8.37;7.67;;;;;;;;;;2631842;38;20406;-75
2021/09/15 11:20:24;;;;;;;7.33;6.63;;;;;;;;;;2632775;38;20356;-75
2021/09/15 11:22:50;;;;;;;8.70;6.43;;;;;;;;;;2633625;30;20457;-75
2021/09/15 11:25:17;;;;;;;6.97;6.37;;;;;;;;;;2634472;38;20383;-75
2021/09/15 11:28:00;;;;;;;12.20;8.40;;;;;;;;;;2633091;30;20371;-75
2021/09/15 11:30:26;;;;;;;7.70;6.90;;;;;;;;;;2630606;30;20914;-77
2021/09/15 11:33:01;;;;;;;10.90;7.27;;;;;;;;;;2634025;30;20391;-76
2021/09/15 11:35:28;;;;;;;8.30;6.30;;;;;;;;;;2633503;30;20358;-75
2021/09/15 11:37:54;;;;;;;7.47;6.30;;;;;;;;;;2634984;30;20356;-75
2021/09/15 11:40:27;;;;;;;6.77;5.43;;;;;;;;;;2634098;38;20371;-75
2021/09/15 11:42:55;;;;;;;6.90;5.67;;;;;;;;;;2636569;38;20380;-76
2021/09/15 11:45:23;;;;;;;8.27;6.57;;;;;;;;;;2633479;30;20387;-75
2021/09/15 11:47:53;;;;;;;6.33;5.80;;;;;;;;;;2634880;30;20841;-75
2021/09/15 11:50:20;;;;;;;8.93;5.80;;;;;;;;;;2632136;38;20342;-75
2021/09/15 11:52:50;;;;;;;8.07;6.60;;;;;;;;;;2632648;30;20344;-74
2021/09/15 11:55:17;;;;;;;6.47;5.83;;;;;;;;;;2633304;30;20424;-75
2021/09/15 11:58:02;;;;;;;6.23;5.63;;;;;;;;;;2632957;30;20430;-75
2021/09/15 12:00:29;;;;;;;6.07;5.57;;;;;;;;;;2632759;38;20375;-75
2021/09/15 12:02:57;;;;;;;6.90;6.27;;;;;;;;;;2631091;38;20374;-75
2021/09/15 12:05:23;;;;;;;6.73;5.93;;;;;;;;;;2632171;38;20378;-76
2021/09/15 12:07:50;;;;;;;7.73;5.70;;;;;;;;;;2631111;30;20375;-75
2021/09/15 12:10:16;;;;;;;6.63;6.03;;;;;;;;;;2633197;30;20359;-76
2021/09/15 12:12:42;;;;;;;7.73;6.00;;;;;;;;;;2636460;30;20373;-76
2021/09/15 12:15:08;;;;;;;7.97;7.23;;;;;;;;;;2632314;38;21027;-75
2021/09/15 12:17:35;;;;;;;7.77;7.17;;;;;;;;;;2630761;38;20387;-75
2021/09/15 12:20:01;;;;;;;7.60;6.93;;;;;;;;;;2634369;38;20866;-75
2021/09/15 12:22:34;;;;;;;8.93;8.00;;;;;;;;;;2633051;38;20363;-75
2021/09/15 12:25:05;;;;;;;8.43;7.63;;;;;;;;;;2634820;30;20867;-75
2021/09/15 15:47:50;;;;;;;25.70;22.17;;;;;;;;;;2648253;35;20459;-74
2021/09/15 15:50:16;;;;;;;25.33;22.07;;;;;;;;;;2632756;30;20450;-75
2021/09/15 15:52:43;;;;;;;23.13;20.73;;;;;;;;;;2629465;30;20395;-75
2021/09/15 15:55:11;;;;;;;24.17;21.67;;;;;;;;;;2629863;30;20374;-74
2021/09/15 15:57:37;;;;;;;21.47;19.27;;;;;;;;;;2634748;30;20863;-75
2021/09/15 16:00:05;;;;;;;21.83;19.53;;;;;;;;;;2630456;38;20965;-75
2021/09/15 16:02:31;;;;;;;21.30;19.03;;;;;;;;;;2629919;30;21009;-75
2021/09/15 16:04:57;;;;;;;19.13;17.23;;;;;;;;;;2634641;30;20354;-76
2021/09/15 16:07:25;;;;;;;18.33;16.40;;;;;;;;;;2633554;30;20363;-75
2021/09/15 16:10:06;;;;;;;16.93;14.53;;;;;;;;;;2628174;30;20764;-75
2021/09/15 16:12:32;;;;;;;17.90;14.80;;;;;;;;;;2630851;30;20371;-75
2021/09/15 16:14:58;;;;;;;16.40;14.70;;;;;;;;;;2626212;30;20367;-75
2021/09/15 16:17:24;;;;;;;17.37;14.53;;;;;;;;;;2628262;30;20360;-75
2021/09/15 16:19:50;;;;;;;15.13;13.63;;;;;;;;;;2626881;38;20373;-75
2021/09/15 16:22:16;;;;;;;15.53;13.87;;;;;;;;;;2627084;30;20838;-75
2021/09/15 16:24:42;;;;;;;13.30;12.00;;;;;;;;;;2628755;38;21360;-75
2021/09/15 16:27:08;;;;;;;16.87;13.17;;;;;;;;;;2629625;38;20327;-75
2021/09/15 16:29:34;;;;;;;12.40;11.10;;;;;;;;;;2628459;38;20342;-75
2021/09/15 16:32:00;;;;;;;10.00;9.03;;;;;;;;;;2628382;31;20375;-75
2021/09/15 16:34:26;;;;;;;9.53;8.00;;;;;;;;;;2629960;38;20351;-75
2021/09/15 16:36:52;;;;;;;7.30;6.70;;;;;;;;;;2630191;30;20886;-75
2021/09/15 16:39:18;;;;;;;7.90;7.20;;;;;;;;;;2630236;38;20363;-75
2021/09/15 16:41:45;;;;;;;7.33;6.50;;;;;;;;;;2632124;30;20817;-76
2021/09/15 16:44:14;;;;;;;7.80;6.33;;;;;;;;;;2630047;30;20371;-75
2021/09/15 16:46:41;;;;;;;5.87;5.13;;;;;;;;;;2629318;38;20378;-75
2021/09/15 16:49:07;;;;;;;10.40;6.20;;;;;;;;;;2631262;30;20835;-75
2021/09/15 16:51:33;;;;;;;6.90;5.20;;;;;;;;;;2627802;30;20860;-78
2021/09/15 16:53:59;;;;;;;6.40;5.80;;;;;;;;;;2630870;30;20363;-74
2021/09/15 16:56:25;;;;;;;8.50;4.83;;;;;;;;;;2631770;30;20375;-75
2021/09/15 16:58:51;;;;;;;5.10;4.60;;;;;;;;;;2628739;38;21213;-75
2021/09/15 17:01:18;;;;;;;6.47;5.80;;;;;;;;;;2631191;30;20793;-75
2021/09/15 17:03:44;;;;;;;8.50;5.33;;;;;;;;;;2629752;30;20355;-75
2021/09/15 17:06:10;;;;;;;7.20;5.70;;;;;;;;;;2631273;30;20363;-75
2021/09/15 17:08:37;;;;;;;6.30;4.83;;;;;;;;;;2628639;38;20689;-74
2021/09/15 17:11:03;;;;;;;10.40;4.80;;;;;;;;;;2629637;38;20917;-75
2021/09/15 17:13:29;;;;;;;6.40;5.73;;;;;;;;;;2631167;38;20530;-75
2021/09/15 17:15:55;;;;;;;5.30;4.80;;;;;;;;;;2627386;38;20375;-76
2021/09/15 17:18:21;;;;;;;6.43;5.63;;;;;;;;;;2630312;30;20869;-75
2021/09/15 17:20:47;;;;;;;9.80;6.00;;;;;;;;;;2629523;38;20944;-75
2021/09/15 17:23:14;;;;;;;11.43;6.60;;;;;;;;;;2630736;30;20330;-75
2021/09/15 17:25:40;;;;;;;7.10;6.40;;;;;;;;;;2630018;30;20974;-76
2021/09/15 17:28:06;;;;;;;6.83;5.30;;;;;;;;;;2631740;30;20441;-75
2021/09/15 17:30:32;;;;;;;8.20;6.40;;;;;;;;;;2632390;38;20383;-75
2021/09/15 17:32:58;;;;;;;7.73;5.50;;;;;;;;;;2629392;38;20434;-74
2021/09/15 17:35:24;;;;;;;6.73;5.30;;;;;;;;;;2630709;38;20910;-75
2021/09/15 17:37:51;;;;;;;6.17;5.30;;;;;;;;;;2631440;30;20387;-75
2021/09/15 17:40:17;;;;;;;8.77;6.73;;;;;;;;;;2628835;30;20425;-75
2021/09/15 17:42:43;;;;;;;9.53;5.83;;;;;;;;;;2630176;30;20367;-75
2021/09/15 17:45:10;;;;;;;9.83;6.53;;;;;;;;;;2631646;38;20890;-75
2021/09/15 17:47:36;;;;;;;8.67;5.83;;;;;;;;;;2629413;38;20379;-75
2021/09/15 17:50:03;;;;;;;7.03;5.20;;;;;;;;;;2631863;38;20458;-75
2021/09/15 17:52:29;;;;;;;6.30;5.80;;;;;;;;;;2634325;30;20334;-75